Time;durP1;ratioP1;P1;durP2;ratioP2;P2;SDS_P1;SDS_P2;PMS_P1;PMS_P2;Temp;Humidity;BMP_temperature;BMP_pressure;BME280_temperature;BME280_humidity;BME280_pressure;Samples;Min_cycle;Max_cycle;Signal;HPM_P1;HPM_P2
2021/12/10 00:02:13;;;;;;;3.03;2.73;;;;;;;0.29;nan;97509.47;5046294;28;20048;-60
2021/12/10 00:04:41;;;;;;;2.93;2.27;;;;;;;0.15;nan;97511.94;5049003;28;20052;-61
2021/12/10 00:07:19;;;;;;;4.23;3.10;;;;;;;0.13;nan;97512.78;5058330;28;20087;-59
2021/12/10 00:09:51;;;;;;;4.00;3.13;;;;;;;-0.01;nan;97515.22;5046201;28;20181;-60
2021/12/10 00:12:23;;;;;;;3.63;3.30;;;;;;;-0.09;nan;97519.41;5048892;28;20045;-60
2021/12/10 00:14:49;;;;;;;4.17;3.33;;;;;;;-0.20;nan;97531.06;5050390;28;20382;-59
2021/12/10 00:17:16;;;;;;;5.20;3.27;;;;;;;-0.25;nan;97538.59;5054635;28;20049;-61
2021/12/10 00:19:47;;;;;;;5.03;3.57;;;;;;;-0.29;nan;97526.81;5048338;28;20037;-59
2021/12/10 00:22:17;;;;;;;4.57;3.33;;;;;;;-0.36;nan;97532.66;5045069;28;20592;-59
2021/12/10 00:24:45;;;;;;;4.17;3.50;;;;;;;-0.39;nan;97536.84;5052852;28;20036;-59
2021/12/10 00:27:12;;;;;;;4.60;3.23;;;;;;;-0.48;nan;97530.06;5053179;28;20075;-60
2021/12/10 00:29:41;;;;;;;6.60;4.27;;;;;;;-0.54;nan;97525.00;5054560;28;20045;-58
2021/12/10 00:32:17;;;;;;;5.93;3.97;;;;;;;-0.60;nan;97520.78;5052183;28;20037;-59
2021/12/10 00:34:48;;;;;;;6.97;4.60;;;;;;;-0.69;nan;97510.66;5054717;28;20037;-60
2021/12/10 00:37:16;;;;;;;8.67;4.40;;;;;;;-0.73;nan;97518.16;5038550;28;20549;-60
2021/12/10 00:39:49;;;;;;;6.53;4.53;;;;;;;-0.78;nan;97519.78;5052128;28;20044;-60
2021/12/10 00:42:19;;;;;;;8.27;5.00;;;;;;;-0.81;nan;97514.75;5051017;28;20049;-60
2021/12/10 00:44:45;;;;;;;8.33;5.10;;;;;;;-0.91;nan;97498.72;5054322;28;20049;-58
2021/12/10 00:47:10;;;;;;;6.57;5.20;;;;;;;-0.96;nan;97506.25;5047215;28;20556;-59
2021/12/10 00:49:37;;;;;;;9.10;5.70;;;;;;;-0.93;nan;97505.41;5052399;28;20033;-60
2021/12/10 00:52:06;;;;;;;8.03;6.00;;;;;;;-1.01;nan;97507.03;5051131;28;20089;-60
2021/12/10 00:54:31;;;;;;;8.23;5.73;;;;;;;-1.03;nan;97498.66;5056969;28;20060;-59
2021/12/10 00:56:57;;;;;;;7.93;5.73;;;;;;;-1.07;nan;97512.03;5052269;28;20573;-60
2021/12/10 00:59:23;;;;;;;9.17;5.43;;;;;;;-1.16;nan;97512.78;5048961;28;20053;-60
2021/12/10 01:01:50;;;;;;;8.77;6.27;;;;;;;-1.18;nan;97509.41;5049971;28;20036;-59
2021/12/10 01:04:25;;;;;;;11.33;7.17;;;;;;;-1.22;nan;97517.75;5051052;28;20198;-59
2021/12/10 01:06:52;;;;;;;11.05;6.70;;;;;;;-1.27;nan;97521.88;5048652;28;20223;-60
2021/12/10 01:09:31;;;;;;;8.83;6.40;;;;;;;-1.23;nan;97522.78;5050758;28;20040;-60
2021/12/10 01:12:03;;;;;;;9.20;5.90;;;;;;;-1.26;nan;97525.25;5047907;28;20033;-57
2021/12/10 01:14:41;;;;;;;9.20;5.93;;;;;;;-1.33;nan;97528.53;5051481;28;20040;-60
2021/12/10 01:25:35;;;;;;;10.63;7.30;;;;;;;-1.54;nan;97521.63;5051336;28;20080;-61
2021/12/10 01:28:02;;;;;;;8.40;6.53;;;;;;;-1.45;nan;97527.59;5049270;28;20434;-58
2021/12/10 01:30:33;;;;;;;7.10;5.80;;;;;;;-1.47;nan;97521.69;5049953;28;20574;-59
2021/12/10 01:33:07;;;;;;;7.50;5.47;;;;;;;-1.50;nan;97524.19;5058907;28;20045;-57
2021/12/10 01:35:38;;;;;;;8.73;5.63;;;;;;;-1.54;nan;97525.00;5045529;28;20069;-58
2021/12/10 01:38:06;;;;;;;11.30;6.23;;;;;;;-1.57;nan;97524.94;5051253;28;20049;-55
2021/12/10 01:40:35;;;;;;;9.70;5.83;;;;;;;-1.59;nan;97523.25;5050944;28;20041;-59
2021/12/10 01:43:07;;;;;;;10.53;6.60;;;;;;;-1.63;nan;97524.03;5049298;28;20030;-57
2021/12/10 01:45:46;;;;;;;7.37;5.23;;;;;;;-1.67;nan;97523.16;5041708;28;20103;-58
2021/12/10 01:48:19;;;;;;;5.83;4.50;;;;;;;-1.70;nan;97514.75;5051245;28;20045;-58
2021/12/10 01:50:45;;;;;;;6.50;4.90;;;;;;;-1.78;nan;97514.66;5053623;28;20486;-59
2021/12/10 01:53:14;;;;;;;8.17;5.83;;;;;;;-1.77;nan;97518.00;5059238;28;20055;-59
2021/12/10 01:55:42;;;;;;;6.40;5.53;;;;;;;-1.86;nan;97517.09;5055008;28;20041;-59
2021/12/10 01:58:13;;;;;;;8.63;6.03;;;;;;;-1.86;nan;97513.72;5058449;28;20476;-60
2021/12/10 02:00:44;;;;;;;10.67;5.70;;;;;;;-1.91;nan;97511.16;5058365;28;20113;-56
2021/12/10 02:03:09;;;;;;;7.57;5.83;;;;;;;-1.93;nan;97509.47;5053725;28;20091;-57
2021/12/10 02:05:35;;;;;;;7.63;5.30;;;;;;;-2.01;nan;97513.56;5048548;28;20052;-56
2021/12/10 02:08:00;;;;;;;8.27;5.50;;;;;;;-2.06;nan;97517.69;5048760;28;20029;-59
2021/12/10 02:10:28;;;;;;;10.33;6.37;;;;;;;-2.07;nan;97519.34;5049611;28;20084;-60
2021/12/10 02:12:54;;;;;;;11.80;6.10;;;;;;;-2.16;nan;97515.88;5050597;28;20052;-59
2021/12/10 02:15:22;;;;;;;9.40;6.20;;;;;;;-2.09;nan;97522.66;5050657;28;20056;-58
2021/12/10 02:17:50;;;;;;;10.70;6.70;;;;;;;-2.07;nan;97529.38;5049045;28;20397;-57
2021/12/10 02:20:26;;;;;;;12.60;6.57;;;;;;;-2.01;nan;97524.44;5053007;28;20378;-59
2021/12/10 02:22:52;;;;;;;12.43;6.67;;;;;;;-2.07;nan;97521.00;5044174;28;20044;-57
2021/12/10 02:25:21;;;;;;;10.50;5.33;;;;;;;-2.07;nan;97526.88;5044733;28;20090;-57
2021/12/10 02:27:47;;;;;;;9.27;6.40;;;;;;;-2.12;nan;97522.63;5049204;28;20045;-58
2021/12/10 02:30:13;;;;;;;8.83;6.10;;;;;;;-2.10;nan;97515.97;5051043;28;20063;-58
2021/12/10 02:32:39;;;;;;;8.87;5.37;;;;;;;-2.06;nan;97521.03;5046217;28;20072;-58
2021/12/10 02:35:08;;;;;;;9.33;6.10;;;;;;;-1.98;nan;97516.09;5053330;28;20072;-57
2021/12/10 02:37:34;;;;;;;7.87;5.43;;;;;;;-2.03;nan;97513.53;5052545;28;20048;-58
2021/12/10 02:39:59;;;;;;;10.77;6.27;;;;;;;-2.05;nan;97510.19;5051593;28;20040;-58
2021/12/10 02:42:25;;;;;;;9.30;5.43;;;;;;;-2.10;nan;97508.44;5046968;28;20047;-55
2021/12/10 02:44:50;;;;;;;8.63;5.40;;;;;;;-2.05;nan;97515.19;5050094;28;20486;-59
2021/12/10 02:47:20;;;;;;;11.47;7.07;;;;;;;-2.06;nan;97518.53;5048730;28;20052;-58
2021/12/10 02:49:45;;;;;;;13.00;6.10;;;;;;;-2.07;nan;97509.31;5051810;28;20045;-59
2021/12/10 02:52:13;;;;;;;8.73;5.63;;;;;;;-2.10;nan;97509.28;5047908;28;20040;-59
2021/12/10 02:54:38;;;;;;;11.40;6.40;;;;;;;-2.08;nan;97505.09;5051614;28;20073;-59
2021/12/10 02:57:11;;;;;;;12.03;6.57;;;;;;;-2.04;nan;97511.03;5051548;28;20068;-58
2021/12/10 02:59:38;;;;;;;7.43;4.80;;;;;;;-1.96;nan;97516.97;5049672;28;20047;-58
2021/12/10 03:02:06;;;;;;;9.43;5.30;;;;;;;-1.96;nan;97509.44;5050004;28;20098;-59
2021/12/10 03:04:33;;;;;;;9.97;5.33;;;;;;;-2.03;nan;97503.50;5051661;28;20095;-59
2021/12/10 03:07:01;;;;;;;6.53;5.07;;;;;;;-2.05;nan;97505.16;5050010;28;20527;-57
2021/12/10 03:09:28;;;;;;;7.63;5.17;;;;;;;-2.08;nan;97505.09;5047110;28;20152;-59
2021/12/10 03:11:56;;;;;;;11.73;5.67;;;;;;;-2.07;nan;97513.47;5046132;28;20082;-57
2021/12/10 03:14:25;;;;;;;9.47;5.77;;;;;;;-1.89;nan;97513.69;5049378;28;20068;-56
2021/12/10 03:16:55;;;;;;;10.87;5.50;;;;;;;-1.93;nan;97506.97;5050018;28;20079;-57
2021/12/10 03:19:21;;;;;;;9.30;5.50;;;;;;;-2.02;nan;97500.16;5041665;28;20152;-59
2021/12/10 03:21:47;;;;;;;8.37;5.00;;;;;;;-2.08;nan;97510.13;5042216;28;20081;-60
2021/12/10 03:24:16;;;;;;;8.00;5.00;;;;;;;-2.06;nan;97508.47;5049004;28;20052;-57
2021/12/10 03:26:41;;;;;;;10.67;6.17;;;;;;;-2.10;nan;97505.91;5049052;28;20041;-57
2021/12/10 03:29:07;;;;;;;8.10;4.90;;;;;;;-2.21;nan;97504.94;5063963;28;20146;-57
2021/12/10 03:31:34;;;;;;;8.20;5.20;;;;;;;-2.25;nan;97504.06;5050149;28;20071;-58
2021/12/10 03:34:00;;;;;;;10.67;5.47;;;;;;;-2.32;nan;97503.13;5052120;28;20068;-55
2021/12/10 03:36:27;;;;;;;10.40;5.23;;;;;;;-2.33;nan;97503.09;5051715;28;20177;-57
2021/12/10 03:38:54;;;;;;;8.37;4.77;;;;;;;-2.37;nan;97499.72;5046383;28;20045;-57
2021/12/10 03:41:21;;;;;;;9.57;5.47;;;;;;;-2.44;nan;97500.47;5047218;28;20570;-58
2021/12/10 03:43:49;;;;;;;6.80;4.83;;;;;;;-2.44;nan;97485.41;5049250;28;20128;-56
2021/12/10 03:46:16;;;;;;;8.53;4.63;;;;;;;-2.49;nan;97481.16;5049430;28;20117;-57
2021/12/10 03:48:45;;;;;;;9.53;5.17;;;;;;;-2.65;nan;97477.59;5047518;28;20083;-57
2021/12/10 03:51:15;;;;;;;9.50;4.63;;;;;;;-2.65;nan;97476.75;5046048;28;20032;-57
2021/12/10 03:53:41;;;;;;;8.87;5.57;;;;;;;-2.71;nan;97474.13;5050791;28;20044;-56
2021/12/10 03:56:10;;;;;;;10.93;5.63;;;;;;;-2.70;nan;97470.81;5048413;28;20040;-57
2021/12/10 03:58:37;;;;;;;5.77;3.77;;;;;;;-2.76;nan;97474.91;5046451;28;20050;-58
2021/12/10 04:01:05;;;;;;;5.27;3.63;;;;;;;-2.73;nan;97475.81;5047250;28;20041;-59
2021/12/10 04:03:33;;;;;;;5.77;3.63;;;;;;;-2.79;nan;97477.41;5048158;28;20041;-59
2021/12/10 04:05:59;;;;;;;6.83;3.93;;;;;;;-2.81;nan;97479.06;5041019;28;20050;-59
2021/12/10 04:08:25;;;;;;;6.50;3.97;;;;;;;-2.86;nan;97484.81;5041054;28;20041;-56
2021/12/10 04:10:53;;;;;;;6.53;4.23;;;;;;;-2.83;nan;97475.66;5046978;28;20074;-59
2021/12/10 04:13:20;;;;;;;7.83;4.10;;;;;;;-2.86;nan;97479.78;5050923;28;20048;-58
2021/12/10 04:15:46;;;;;;;9.63;3.97;;;;;;;-2.92;nan;97488.06;5047234;28;20069;-61
2021/12/10 04:18:12;;;;;;;5.07;3.23;;;;;;;-2.93;nan;97476.34;5045377;28;20442;-65
2021/12/10 04:20:40;;;;;;;6.13;3.00;;;;;;;-2.98;nan;97480.47;5049276;28;20033;-60
2021/12/10 04:23:09;;;;;;;4.97;3.37;;;;;;;-3.02;nan;97483.75;5054520;28;20378;-61
2021/12/10 04:25:34;;;;;;;3.33;2.63;;;;;;;-3.04;nan;97475.34;5048734;28;20036;-62
2021/12/10 04:28:06;;;;;;;5.17;3.50;;;;;;;-3.05;nan;97476.16;5049905;28;20041;-63
2021/12/10 04:30:36;;;;;;;4.37;2.90;;;;;;;-3.09;nan;97479.44;5052950;28;20646;-62
2021/12/10 04:33:03;;;;;;;10.40;3.77;;;;;;;-3.10;nan;97481.94;5049830;28;20091;-62
2021/12/10 04:35:29;;;;;;;5.80;3.70;;;;;;;-3.17;nan;97468.44;5050568;28;20042;-62
2021/12/10 04:37:54;;;;;;;6.93;4.43;;;;;;;-3.15;nan;97465.97;5050109;28;20393;-64
2021/12/10 04:40:21;;;;;;;7.93;4.60;;;;;;;-3.29;nan;97474.13;5052953;28;20087;-61
2021/12/10 04:42:47;;;;;;;5.60;4.23;;;;;;;-3.25;nan;97468.34;5052021;28;20056;-62
2021/12/10 04:45:14;;;;;;;9.93;5.23;;;;;;;-3.39;nan;97469.75;5048592;28;20501;-61
2021/12/10 04:47:41;;;;;;;7.77;5.83;;;;;;;-3.38;nan;97470.63;5046206;28;20032;-62
2021/12/10 04:50:08;;;;;;;8.57;5.10;;;;;;;-3.42;nan;97473.88;5052116;28;20099;-62
2021/12/10 04:52:36;;;;;;;7.83;5.03;;;;;;;-3.47;nan;97467.94;5050905;28;20604;-63
2021/12/10 04:55:05;;;;;;;8.10;4.17;;;;;;;-3.46;nan;97470.50;5051776;28;20036;-62
2021/12/10 04:57:30;;;;;;;8.17;4.90;;;;;;;-3.45;nan;97468.84;5048971;28;20099;-62
2021/12/10 04:59:57;;;;;;;9.77;5.57;;;;;;;-3.50;nan;97480.44;5052443;28;20040;-64
2021/12/10 05:02:23;;;;;;;9.93;5.83;;;;;;;-3.51;nan;97473.72;5071204;28;20036;-61
2021/12/10 05:04:48;;;;;;;10.67;5.80;;;;;;;-3.45;nan;97464.69;5052642;28;20053;-60
2021/12/10 05:07:16;;;;;;;8.83;5.23;;;;;;;-3.41;nan;97465.56;5051412;28;20041;-62
2021/12/10 05:09:42;;;;;;;12.83;6.87;;;;;;;-3.47;nan;97466.28;5052995;28;20086;-62
2021/12/10 05:12:08;;;;;;;14.17;6.73;;;;;;;-3.46;nan;97457.13;5050365;28;20029;-64
2021/12/10 05:14:34;;;;;;;11.20;6.07;;;;;;;-3.48;nan;97467.09;5050512;28;20055;-62
2021/12/10 05:17:05;;;;;;;9.17;5.53;;;;;;;-3.48;nan;97461.28;5052239;28;20037;-63
2021/12/10 05:19:31;;;;;;;12.53;6.00;;;;;;;-3.47;nan;97463.78;5053572;28;20449;-62
2021/12/10 05:22:01;;;;;;;10.10;6.60;;;;;;;-3.32;nan;97460.72;5049874;28;20152;-62
2021/12/10 05:24:28;;;;;;;14.07;8.53;;;;;;;-3.24;nan;97456.66;5048501;28;20033;-62
2021/12/10 05:26:56;;;;;;;14.93;8.73;;;;;;;-3.22;nan;97460.00;5055584;28;20045;-63
2021/12/10 05:29:21;;;;;;;11.23;7.73;;;;;;;-3.26;nan;97460.78;5054691;28;20045;-63
2021/12/10 05:31:47;;;;;;;14.47;6.90;;;;;;;-3.22;nan;97450.84;5052646;28;20048;-63
2021/12/10 05:34:14;;;;;;;11.97;6.23;;;;;;;-3.20;nan;97453.38;5052064;28;20045;-62
2021/12/10 05:36:40;;;;;;;10.93;6.40;;;;;;;-3.15;nan;97450.94;5050276;28;20073;-62
2021/12/10 05:39:08;;;;;;;10.57;6.10;;;;;;;-3.09;nan;97451.03;5052600;28;20106;-62
2021/12/10 05:41:33;;;;;;;13.07;6.10;;;;;;;-3.09;nan;97441.00;5047196;28;20378;-62
2021/12/10 05:43:59;;;;;;;15.70;5.93;;;;;;;-3.11;nan;97442.66;5042138;28;20036;-61
2021/12/10 05:46:25;;;;;;;11.97;5.70;;;;;;;-3.15;nan;97443.44;5049540;28;20103;-61
2021/12/10 05:48:50;;;;;;;8.50;5.60;;;;;;;-3.17;nan;97443.38;5048682;28;20441;-61
2021/12/10 05:51:16;;;;;;;10.73;5.63;;;;;;;-3.25;nan;97434.91;5046581;28;20099;-61
2021/12/10 05:53:42;;;;;;;11.23;6.50;;;;;;;-3.31;nan;97443.16;5048929;28;20082;-60
2021/12/10 05:56:08;;;;;;;11.97;6.23;;;;;;;-3.33;nan;97439.81;5047831;28;20075;-61
2021/12/10 05:58:34;;;;;;;12.23;6.30;;;;;;;-3.34;nan;97438.13;5048067;28;20037;-62
2021/12/10 06:01:06;;;;;;;11.30;7.30;;;;;;;-3.40;nan;97433.03;5048525;28;20486;-61
2021/12/10 06:03:36;;;;;;;12.97;6.97;;;;;;;-3.40;nan;97442.22;5048698;28;20391;-58
2021/12/10 06:06:02;;;;;;;14.23;7.80;;;;;;;-3.46;nan;97440.44;5048805;28;20043;-60
2021/12/10 06:08:28;;;;;;;13.83;7.00;;;;;;;-3.44;nan;97443.81;5052886;28;20036;-61
2021/12/10 06:10:56;;;;;;;13.23;7.00;;;;;;;-3.47;nan;97435.38;5047482;28;20049;-65
2021/12/10 06:13:22;;;;;;;10.27;6.40;;;;;;;-3.53;nan;97445.31;5043382;28;20111;-59
2021/12/10 06:15:48;;;;;;;12.77;6.50;;;;;;;-3.62;nan;97438.50;5048772;28;20072;-61
2021/12/10 06:18:13;;;;;;;17.93;6.97;;;;;;;-3.70;nan;97435.88;5045845;28;20550;-59
2021/12/10 06:20:43;;;;;;;14.57;8.40;;;;;;;-3.77;nan;97429.06;5044835;28;20046;-55
2021/12/10 06:23:09;;;;;;;12.70;7.43;;;;;;;-3.75;nan;97434.09;5045706;28;20048;-58
2021/12/10 06:25:36;;;;;;;13.13;7.23;;;;;;;-3.77;nan;97433.22;5048767;28;20044;-59
2021/12/10 06:28:02;;;;;;;9.97;7.30;;;;;;;-3.84;nan;97437.28;5049692;28;20036;-60
2021/12/10 06:30:31;;;;;;;13.80;7.83;;;;;;;-3.89;nan;97438.84;5047182;28;20048;-58
2021/12/10 06:32:59;;;;;;;17.10;8.73;;;;;;;-3.93;nan;97441.28;5043904;28;20036;-60
2021/12/10 06:35:28;;;;;;;18.77;10.27;;;;;;;-3.90;nan;97436.31;5047902;28;20139;-56
2021/12/10 06:37:55;;;;;;;22.43;10.27;;;;;;;-3.99;nan;97432.00;5041762;28;20459;-59
2021/12/10 06:40:24;;;;;;;20.67;9.53;;;;;;;-4.02;nan;97428.59;5045425;28;20033;-55
2021/12/10 06:42:50;;;;;;;20.93;10.30;;;;;;;-4.02;nan;97428.59;5053958;28;20048;-57
2021/12/10 06:45:23;;;;;;;24.40;11.37;;;;;;;-3.96;nan;97419.53;5052183;28;20045;-60
2021/12/10 06:47:50;;;;;;;29.60;13.60;;;;;;;-4.04;nan;97416.06;5045163;28;20490;-58
2021/12/10 06:50:17;;;;;;;22.93;12.20;;;;;;;-4.04;nan;97420.22;5049209;28;20052;-61
2021/12/10 06:52:43;;;;;;;25.47;12.30;;;;;;;-4.04;nan;97422.72;5046861;28;20044;-58
2021/12/10 06:55:09;;;;;;;25.53;13.33;;;;;;;-4.04;nan;97421.06;5051437;28;20391;-60
2021/12/10 06:57:36;;;;;;;28.07;12.33;;;;;;;-4.07;nan;97418.50;5047289;28;20094;-59
2021/12/10 07:00:05;;;;;;;27.70;12.67;;;;;;;-4.02;nan;97419.44;5050300;28;20522;-58
2021/12/10 07:02:31;;;;;;;29.00;13.67;;;;;;;-4.06;nan;97405.16;5048373;28;20047;-60
2021/12/10 07:04:56;;;;;;;27.47;15.07;;;;;;;-4.00;nan;97414.47;5050937;28;20049;-60
2021/12/10 07:07:22;;;;;;;27.97;14.57;;;;;;;-3.99;nan;97412.00;5047363;28;20041;-60
2021/12/10 07:09:47;;;;;;;23.20;13.50;;;;;;;-3.91;nan;97412.97;5049609;28;20115;-57
2021/12/10 07:12:13;;;;;;;27.00;13.23;;;;;;;-3.85;nan;97415.56;5051972;28;20033;-60
2021/12/10 07:14:38;;;;;;;27.83;15.00;;;;;;;-3.85;nan;97405.53;5048988;28;20483;-60
2021/12/10 07:17:05;;;;;;;28.07;13.40;;;;;;;-3.71;nan;97418.31;5047581;28;20084;-60
2021/12/10 07:19:30;;;;;;;29.40;14.77;;;;;;;-3.73;nan;97413.25;5048208;28;20041;-59
2021/12/10 07:21:56;;;;;;;29.37;14.30;;;;;;;-3.65;nan;97413.41;5045812;28;20545;-60
2021/12/10 07:24:22;;;;;;;30.73;15.13;;;;;;;-3.53;nan;97413.63;5049573;28;20376;-59
2021/12/10 07:26:47;;;;;;;27.10;13.03;;;;;;;-3.49;nan;97414.50;5044296;28;20441;-60
2021/12/10 07:29:14;;;;;;;27.57;14.13;;;;;;;-3.52;nan;97404.44;5031822;28;20445;-61
2021/12/10 07:31:42;;;;;;;22.10;12.47;;;;;;;-3.40;nan;97404.63;5053283;28;20091;-62
2021/12/10 07:34:08;;;;;;;24.43;12.57;;;;;;;-3.41;nan;97402.94;5050534;28;20037;-61
2021/12/10 07:36:34;;;;;;;20.77;10.77;;;;;;;-3.29;nan;97396.44;5045616;28;20037;-63
2021/12/10 07:39:00;;;;;;;21.77;11.87;;;;;;;-3.17;nan;97402.44;5047572;28;20040;-59
2021/12/10 07:41:26;;;;;;;21.03;11.77;;;;;;;-3.04;nan;97396.78;5046060;28;20033;-60
2021/12/10 07:43:51;;;;;;;25.00;11.87;;;;;;;-2.89;nan;97400.38;5047312;28;20067;-61
2021/12/10 07:46:17;;;;;;;23.30;12.77;;;;;;;-2.80;nan;97390.44;5046907;28;20101;-61
2021/12/10 07:48:44;;;;;;;19.50;10.87;;;;;;;-2.66;nan;97399.81;5045182;28;20048;-60
2021/12/10 07:51:15;;;;;;;17.77;9.27;;;;;;;-2.49;nan;97393.34;5043428;28;20033;-61
2021/12/10 07:53:43;;;;;;;13.83;8.40;;;;;;;-2.52;nan;97395.81;5049880;28;20199;-59
2021/12/10 07:56:11;;;;;;;16.00;9.03;;;;;;;-2.35;nan;97390.19;5045316;28;20545;-61
2021/12/10 07:58:40;;;;;;;16.67;8.73;;;;;;;-2.23;nan;97376.91;5048604;28;20135;-59
2021/12/10 08:01:12;;;;;;;15.93;10.13;;;;;;;-1.99;nan;97384.69;5043660;28;20057;-59
2021/12/10 08:03:37;;;;;;;15.57;8.87;;;;;;;-1.89;nan;97375.59;5043744;28;20041;-61
2021/12/10 08:06:03;;;;;;;17.43;10.47;;;;;;;-1.70;nan;97364.88;5051522;28;20311;-62
2021/12/10 08:08:28;;;;;;;16.50;9.40;;;;;;;-1.56;nan;97370.84;5048834;28;20045;-59
2021/12/10 08:10:54;;;;;;;19.80;10.33;;;;;;;-1.41;nan;97367.63;5049132;28;20083;-59
2021/12/10 08:13:22;;;;;;;14.33;8.93;;;;;;;-1.23;nan;97370.25;5053937;28;20116;-60
2021/12/10 08:15:48;;;;;;;10.17;7.23;;;;;;;-1.21;nan;97352.66;5052286;28;20049;-59
2021/12/10 08:18:14;;;;;;;15.63;7.57;;;;;;;-1.09;nan;97366.16;5049688;28;20048;-60
2021/12/10 08:20:40;;;;;;;11.87;7.00;;;;;;;-1.03;nan;97368.72;5050066;28;20497;-58
2021/12/10 08:23:06;;;;;;;28.90;13.43;;;;;;;-1.02;nan;97351.97;5054472;28;20032;-61
2021/12/10 08:25:32;;;;;;;14.70;9.07;;;;;;;-1.10;nan;97356.06;5034448;28;20132;-61
2021/12/10 08:27:59;;;;;;;12.50;7.33;;;;;;;-0.95;nan;97344.44;5048794;28;20048;-59
2021/12/10 08:30:27;;;;;;;10.90;7.87;;;;;;;-0.73;nan;97342.03;5047489;28;20372;-60
2021/12/10 08:32:55;;;;;;;12.13;6.83;;;;;;;-0.94;nan;97338.59;5047845;28;20068;-61
2021/12/10 08:35:23;;;;;;;9.33;5.03;;;;;;;-1.11;nan;97332.63;5055056;28;20075;-58
2021/12/10 08:37:50;;;;;;;11.17;7.17;;;;;;;-0.85;nan;97331.94;5036177;28;20128;-60
2021/12/10 08:40:19;;;;;;;26.90;13.37;;;;;;;-0.73;nan;97324.44;5050243;28;20068;-59
2021/12/10 08:42:45;;;;;;;10.63;6.43;;;;;;;-0.70;nan;97317.72;5048391;28;20072;-59
2021/12/10 08:45:11;;;;;;;8.17;5.00;;;;;;;-0.61;nan;97316.91;5051063;28;20080;-55
2021/12/10 08:47:36;;;;;;;42.40;20.50;;;;;;;-0.53;nan;97317.78;5048345;28;20037;-57
2021/12/10 08:50:05;;;;;;;37.33;16.57;;;;;;;-0.47;nan;97312.78;5051994;28;20542;-58
2021/12/10 08:52:31;;;;;;;53.20;24.10;;;;;;;-0.51;nan;97316.13;5049856;28;20040;-57
2021/12/10 08:54:56;;;;;;;13.90;8.27;;;;;;;-0.39;nan;97310.28;5052457;28;20063;-56
2021/12/10 08:57:23;;;;;;;20.23;10.47;;;;;;;-0.31;nan;97303.56;5048547;28;20676;-56
2021/12/10 08:59:48;;;;;;;21.30;12.30;;;;;;;-0.21;nan;97298.53;5052635;28;20056;-55
2021/12/10 09:02:16;;;;;;;19.67;11.67;;;;;;;-0.08;nan;97295.22;5050516;28;20033;-57
2021/12/10 09:04:42;;;;;;;10.73;6.40;;;;;;;-0.22;nan;97299.41;5050895;28;20087;-59
2021/12/10 09:07:12;;;;;;;6.50;4.33;;;;;;;-0.27;nan;97288.47;5054919;28;20499;-59
2021/12/10 09:09:41;;;;;;;8.50;4.80;;;;;;;0.00;nan;97283.47;5051025;28;20076;-58
2021/12/10 09:12:12;;;;;;;7.63;4.27;;;;;;;0.22;nan;97281.78;5047183;28;20080;-59
2021/12/10 09:14:43;;;;;;;7.83;4.67;;;;;;;0.33;nan;97272.56;5050016;28;20037;-58
2021/12/10 09:17:10;;;;;;;9.13;5.30;;;;;;;0.56;nan;97282.59;5051650;28;20045;-62
2021/12/10 09:19:39;;;;;;;8.67;4.23;;;;;;;0.74;nan;97285.09;5048491;28;20033;-59
2021/12/10 09:22:07;;;;;;;7.10;4.20;;;;;;;0.93;nan;97276.63;5046514;28;20060;-60
2021/12/10 09:24:32;;;;;;;6.77;4.20;;;;;;;0.98;nan;97266.50;5052259;28;20499;-57
2021/12/10 09:26:59;;;;;;;5.63;3.83;;;;;;;0.87;nan;97261.53;5050693;28;20047;-59
2021/12/10 09:29:28;;;;;;;5.07;4.03;;;;;;;1.03;nan;97253.88;5049722;28;20037;-58
2021/12/10 09:31:54;;;;;;;10.90;5.47;;;;;;;1.05;nan;97254.72;5048403;28;20495;-60
2021/12/10 09:34:21;;;;;;;8.23;4.43;;;;;;;1.14;nan;97245.44;5052887;28;20069;-61
2021/12/10 09:36:49;;;;;;;8.60;4.83;;;;;;;1.21;nan;97237.00;5051865;28;20041;-57
2021/12/10 09:39:17;;;;;;;7.47;5.10;;;;;;;1.12;nan;97238.72;5048860;28;20400;-58
2021/12/10 09:41:43;;;;;;;9.73;5.83;;;;;;;1.34;nan;97232.72;5051702;28;20115;-54
2021/12/10 09:44:10;;;;;;;6.47;4.50;;;;;;;1.45;nan;97220.88;5054285;28;20033;-58
2021/12/10 09:46:36;;;;;;;9.20;5.60;;;;;;;1.58;nan;97211.53;5049314;28;20537;-58
2021/12/10 09:49:03;;;;;;;8.63;5.53;;;;;;;1.71;nan;97219.00;5050931;28;20041;-55
2021/12/10 09:51:33;;;;;;;11.37;6.90;;;;;;;1.67;nan;97206.41;5053658;28;20068;-59
2021/12/10 09:54:02;;;;;;;8.13;5.27;;;;;;;1.73;nan;97198.81;5051528;28;20033;-57
2021/12/10 09:56:28;;;;;;;10.13;6.37;;;;;;;1.72;nan;97197.13;5047193;28;20453;-59
2021/12/10 09:58:56;;;;;;;10.03;7.10;;;;;;;1.38;nan;97204.09;5050416;28;20539;-60
2021/12/10 10:01:26;;;;;;;11.50;7.37;;;;;;;1.28;nan;97203.28;5051995;28;20528;-59
2021/12/10 10:04:00;;;;;;;11.00;6.93;;;;;;;1.35;nan;97199.91;5045385;28;20396;-58
2021/12/10 10:06:28;;;;;;;10.13;7.05;;;;;;;1.12;nan;97196.66;5044789;28;20105;-57
2021/12/10 10:08:53;;;;;;;10.73;6.87;;;;;;;1.50;nan;97188.84;5049968;28;20372;-54
2021/12/10 10:11:23;;;;;;;11.33;7.10;;;;;;;1.72;nan;97181.97;5050908;28;20118;-56
2021/12/10 10:13:50;;;;;;;11.87;7.43;;;;;;;1.72;nan;97187.03;5049503;28;20475;-59
2021/12/10 10:16:17;;;;;;;13.73;7.93;;;;;;;1.11;nan;97181.50;5048222;28;20106;-56
2021/12/10 10:18:44;;;;;;;13.97;8.93;;;;;;;0.95;nan;97174.88;5049975;28;20037;-57
2021/12/10 10:21:15;;;;;;;15.23;8.20;;;;;;;0.67;nan;97181.72;5054440;28;20044;-58
2021/12/10 10:23:42;;;;;;;9.80;7.27;;;;;;;0.49;nan;97180.09;5042975;28;20045;-56
2021/12/10 10:26:12;;;;;;;13.27;7.93;;;;;;;-0.09;nan;97179.38;5046354;28;20041;-57
2021/12/10 10:28:38;;;;;;;14.27;9.37;;;;;;;0.28;nan;97183.50;5050525;28;20445;-58
2021/12/10 10:31:18;;;;;;;22.17;10.37;;;;;;;0.47;nan;97175.06;5050528;28;20049;-56
2021/12/10 10:33:46;;;;;;;18.00;9.77;;;;;;;0.38;nan;97175.06;5044502;28;20075;-56
2021/12/10 10:36:19;;;;;;;17.53;10.17;;;;;;;0.33;nan;97174.28;5047823;28;20036;-58
2021/12/10 10:38:48;;;;;;;24.73;11.73;;;;;;;-0.38;nan;97164.25;5051605;28;20604;-59
2021/12/10 10:41:16;;;;;;;21.93;10.87;;;;;;;-0.20;nan;97155.84;5044556;28;20045;-61
2021/12/10 10:43:42;;;;;;;25.47;11.83;;;;;;;-0.37;nan;97148.31;5045890;28;20047;-57
2021/12/10 10:46:07;;;;;;;22.50;11.60;;;;;;;-0.05;nan;97156.72;5047545;28;20052;-56
2021/12/10 10:48:33;;;;;;;23.23;13.03;;;;;;;-0.26;nan;97153.38;5047738;28;20037;-54
2021/12/10 10:51:07;;;;;;;25.73;12.60;;;;;;;-0.22;nan;97144.97;5044816;28;20402;-59
2021/12/10 10:53:41;;;;;;;23.38;11.77;;;;;;;-0.07;nan;97152.50;5044058;28;20044;-59
2021/12/10 10:56:10;;;;;;;24.73;12.33;;;;;;;0.19;nan;97149.94;5045612;28;20042;-58
2021/12/10 10:58:41;;;;;;;21.70;11.80;;;;;;;0.23;nan;97149.09;5046641;28;20054;-57
2021/12/10 11:01:20;;;;;;;23.63;11.40;;;;;;;0.06;nan;97150.78;5047716;28;20124;-57
2021/12/10 11:03:57;;;;;;;21.17;11.87;;;;;;;0.03;nan;97146.63;5047277;28;20045;-59
2021/12/10 11:06:36;;;;;;;24.73;12.63;;;;;;;-0.02;nan;97154.19;5043262;28;20044;-56
2021/12/10 11:09:25;;;;;;;23.43;12.07;;;;;;;0.36;nan;97148.22;5027914;28;20061;-55
2021/12/10 11:11:54;;;;;;;23.73;12.50;;;;;;;0.26;nan;97141.50;5048492;28;20041;-58
2021/12/10 11:14:37;;;;;;;24.37;12.80;;;;;;;0.72;nan;97130.41;5052249;28;20045;-60
2021/12/10 11:17:25;;;;;;;26.77;12.33;;;;;;;0.73;nan;97121.16;5048368;28;20509;-56
2021/12/10 11:20:09;;;;;;;18.83;10.57;;;;;;;0.92;nan;97115.19;5043561;28;20079;-58
2021/12/10 11:22:43;;;;;;;20.33;10.97;;;;;;;0.77;nan;97113.56;5049938;28;20486;-58
2021/12/10 11:25:19;;;;;;;23.87;10.43;;;;;;;0.99;nan;97108.41;5052267;28;20471;-56
2021/12/10 11:27:47;;;;;;;21.43;11.50;;;;;;;0.71;nan;97118.66;5031442;28;20041;-60
2021/12/10 11:30:22;;;;;;;25.20;12.30;;;;;;;0.62;nan;97103.56;5028005;28;20408;-56
2021/12/10 11:32:47;;;;;;;23.60;12.13;;;;;;;0.56;nan;97105.28;5049896;28;20037;-56
2021/12/10 11:35:20;;;;;;;23.13;12.23;;;;;;;0.65;nan;97107.75;5048089;28;20047;-55
2021/12/10 11:37:59;;;;;;;25.37;13.17;;;;;;;0.71;nan;97095.97;5047574;28;20037;-54
2021/12/10 11:40:38;;;;;;;19.93;11.53;;;;;;;0.50;nan;97091.03;5045066;28;20048;-57
2021/12/10 11:48:37;;;;;;;22.37;12.43;;;;;;;0.48;nan;97077.59;5032209;28;20044;-56
2021/12/10 11:51:17;;;;;;;20.93;10.80;;;;;;;0.69;nan;97077.47;5051844;28;20056;-57
2021/12/10 11:53:47;;;;;;;23.63;13.00;;;;;;;0.64;nan;97071.59;5055245;28;20041;-60
2021/12/10 11:56:40;;;;;;;21.70;12.00;;;;;;;0.89;nan;97069.81;5053067;28;20052;-54
2021/12/10 11:59:07;;;;;;;19.30;12.30;;;;;;;0.99;nan;97058.78;5052879;28;20033;-54
2021/12/10 12:01:45;;;;;;;31.87;17.40;;;;;;;0.89;nan;97052.97;5054668;28;20386;-57
2021/12/10 12:04:16;;;;;;;21.53;12.57;;;;;;;0.90;nan;97049.59;5056010;28;20415;-54